Terminal Aerodrome Forecast
Issued by NWS Atlanta, GA

Current Version | Previous Version | Text Only | Print | Product List | Glossary On
Versions: 1 2 3 4 5 6 7 8 9 10 11 12 13 14 15 16 17 18 19 20 21 22 23 24 25 26 27 28 29 30 31 32
000
FTUS42 KFFC 040054 AAA
TAFCSG
TAF AMD
KCSG 040054Z 0401/0424 27008KT P6SM SCT040 BKN100
      TEMPO 0403/0406 VRB15G30KT 2SM TSRA BR BKN030CB
     FM040600 25004KT P6SM VCSH SCT020 BKN035
     FM041400 28010G17KT P6SM SCT035 BKN100
     FM041800 26012G20KT P6SM SCT045 BKN100 PROB30 0420/0424 4SM
      -TSRA BR BKN025CB=

USA.gov is the U.S. government's official web portal to all federal, state and local government web resources and services.